• Join FlightAware (Why Join?)
  • Login
  • US Flag 
04:07PM EDT


 

Airport Tracker/Info


-or-


 

Live Flight TrackerFlight Track Log ✈ CAL601 ✈ 13-May-2013 ✈ RCTP / TPE - VHHH / HKG

Flight Track Log - Related Links

Times and Time Zones

All times are in EDT time to prevent confusion due to time zone crossing. See the CAL601 flight status page for this flight to view local times or setup timezone preferences in your user account.

Time Position Orientation Groundspeed Altitude Reporting Facility
EDT Latitude Longitude Course Direction KTS MPH feet Rate Location/Type
07:47PM 25.0800 121.2480 49° Northeast 167 192 700  Level FlightAware
07:48PM 25.0970 121.2690 48° Northeast 179 206 1,700 1,560 Climbing FlightAware
07:48PM 25.1040 121.2790 52° Northeast 195 224 1,900 1,020 Climbing FlightAware
07:48PM 25.1210 121.3000 48° Northeast 225 259 2,400 1,500 Climbing FlightAware
07:48PM 25.1350 121.3050 18° North 226 260 2,900 2,220 Climbing FlightAware
07:49PM 25.1620 121.2900 333° Northwest 222 255 4,100 2,220 Climbing FlightAware
07:49PM 25.1660 121.2730 285° West 223 257 4,600 1,320 Climbing FlightAware
07:50PM 25.1560 121.2480 246° West 248 285 5,000 1,740 Climbing FlightAware
07:50PM 25.1360 121.2140 237° Southwest 254 292 6,200 2,580 Climbing FlightAware
07:51PM 25.1170 121.1800 238° Southwest 260 299 7,600 2,460 Climbing FlightAware
07:51PM 25.1010 121.1520 238° Southwest 271 312 8,500 2,760 Climbing FlightAware
07:52PM 25.0730 121.1040 237° Southwest 278 320 10,600 3,000 Climbing FlightAware
07:52PM 25.0410 121.0480 238° Southwest 292 336 12,800 2,520 Climbing FlightAware
07:53PM 25.0110 120.9950 238° Southwest 317 365 14,200 2,460 Climbing FlightAware
07:53PM 25.0040 120.9740 250° West 310 357 15,100 3,120 Climbing FlightAware
07:54PM 24.9880 120.9130 254° West 309 356 17,100 2,820 Climbing FlightAware
07:55PM 24.9690 120.8430 253° West 315 362 19,100 2,460 Climbing FlightAware
07:55PM 24.9450 120.7840 246° West 327 376 20,600 2,160 Climbing FlightAware
07:56PM 24.9180 120.7230 244° Southwest 337 388 22,000 2,100 Climbing FlightAware
07:57PM 24.8870 120.6540 244° Southwest 342 394 23,600 1,680 Climbing FlightAware
07:58PM 24.8580 120.5900 243° Southwest 360 414 24,400 1,920 Climbing FlightAware
07:58PM 24.8240 120.5170 243° Southwest 349 402 26,400 2,220 Climbing FlightAware
07:59PM 24.7960 120.4520 245° Southwest 352 405 27,600 1,560 Climbing FlightAware
08:00PM 24.7670 120.3870 244° Southwest 362 417 28,500 1,260 Climbing FlightAware
08:00PM 24.7160 120.3270 227° Southwest 380 437 29,400 1,200 Climbing FlightAware
08:01PM 24.6600 120.2760 220° Southwest 393 452 30,200 1,380 Climbing FlightAware
08:02PM 24.5870 120.2300 210° Southwest 399 459 31,400 1,200 Climbing FlightAware
08:02PM 24.5210 120.1900 209° Southwest 412 474 31,900 1,200 Climbing FlightAware
08:03PM 24.4290 120.1340 209° Southwest 410 472 33,300 1,740 Climbing FlightAware
08:04PM 24.3580 120.0910 209° Southwest 395 455 34,800 1,680 Climbing FlightAware
08:05PM 24.2940 120.0530 208° Southwest 391 450 35,700 960 Climbing FlightAware
08:05PM 24.2360 120.0180 209° Southwest 396 456 36,000 180 Climbing FlightAware
08:06PM 24.1630 119.9750 208° Southwest 409 471 36,000  Level FlightAware
08:07PM 24.0970 119.9350 209° Southwest 410 472 36,000  Level FlightAware
08:07PM 24.0300 119.8950 209° Southwest 410 472 36,000  Level FlightAware
08:08PM 23.9570 119.8510 209° Southwest 411 473 36,000  Level FlightAware
08:09PM 23.8880 119.8110 208° Southwest 411 473 36,000  Level FlightAware
08:10PM 23.8260 119.7740 209° Southwest 412 474 36,000  Level FlightAware
08:11PM 23.7260 119.7140 209° Southwest 413 475 36,000  Level FlightAware
08:11PM 23.6320 119.6580 209° Southwest 413 475 36,000  Level FlightAware
08:12PM 23.5810 119.6110 220° Southwest 400 460 36,000  Level FlightAware
08:13PM 23.5400 119.5410 237° Southwest 400 460 36,000  Level FlightAware
08:14PM 23.4930 119.4600 238° Southwest 400 460 36,000  Level FlightAware
08:14PM 23.4570 119.3990 237° Southwest 400 460 36,000  Level FlightAware
08:15PM 23.4010 119.3020 238° Southwest 402 463 36,000  Level FlightAware
08:16PM 23.3450 119.2060 238° Southwest 404 465 36,000  Level FlightAware
08:17PM 23.3020 119.1330 237° Southwest 405 466 36,000  Level FlightAware
08:17PM 23.2620 119.0650 237° Southwest 406 467 36,000  Level FlightAware
08:18PM 23.2070 118.9700 238° Southwest 407 468 36,000  Level FlightAware
08:19PM 23.1530 118.8770 238° Southwest 409 471 36,000  Level FlightAware
08:20PM 23.1110 118.8060 237° Southwest 409 471 36,000  Level FlightAware
08:21PM 23.0670 118.7320 237° Southwest 408 470 36,000  Level FlightAware
08:22PM 23.0070 118.6300 237° Southwest 409 471 36,000  Level FlightAware
08:22PM 22.9690 118.5650 238° Southwest 410 472 36,000  Level FlightAware
08:23PM 22.9180 118.4800 237° Southwest 410 472 36,000  Level FlightAware
08:24PM 22.8780 118.4120 237° Southwest 409 471 36,000  Level FlightAware
08:24PM 22.8370 118.3420 238° Southwest 410 472 36,000  Level FlightAware
08:25PM 22.7930 118.2680 237° Southwest 411 473 36,000  Level FlightAware
08:26PM 22.7500 118.1960 237° Southwest 412 474 36,000  Level FlightAware
08:26PM 22.7030 118.1170 237° Southwest 412 474 36,000  Level FlightAware
08:27PM 22.6630 118.0490 237° Southwest 413 475 36,000  Level FlightAware
08:28PM 22.6200 117.9780 237° Southwest 413 475 36,000  Level FlightAware
08:28PM 22.5850 117.9200 237° Southwest 413 475 36,000  Level FlightAware
08:29PM 22.5380 117.8400 238° Southwest 414 476 36,000  Level FlightAware
08:30PM 22.4990 117.7750 237° Southwest 415 478 36,000  Level FlightAware
08:31PM 22.4460 117.6880 237° Southwest 416 479 36,000  Level FlightAware
08:31PM 22.4100 117.6280 237° Southwest 416 479 36,000  Level FlightAware
08:32PM 22.3560 117.5370 237° Southwest 417 480 36,000  Level FlightAware
08:33PM 22.3230 117.4840 236° Southwest 417 480 36,000  Level FlightAware
08:33PM 22.2860 117.4250 236° Southwest 417 480 36,000  Level FlightAware
08:34PM 22.2400 117.3520 236° Southwest 417 480 36,000  Level FlightAware
08:35PM 22.2030 117.2930 236° Southwest 417 480 36,000  Level FlightAware
08:35PM 22.3280 117.1920 323° Northwest 36,000  Level FlightAware
08:36PM 22.3260 117.0970 269° West 402 463 36,000  Level FlightAware
08:36PM 22.3240 117.0230 268° West 403 464 36,000  Level FlightAware
08:37PM 22.3230 116.9280 269° West 405 466 36,000  Level FlightAware
08:38PM 22.3210 116.8470 268° West 403 464 36,000  Level FlightAware
08:39PM 22.3190 116.7690 268° West 402 463 36,000  Level FlightAware
08:39PM 22.3170 116.6870 269° West 402 463 36,000  Level FlightAware
08:40PM 22.3140 116.5650 269° West 400 460 36,000 -480 Level FlightAware
08:41PM 22.3110 116.4300 269° West 394 453 35,000 -1,200 Descending FlightAware
08:42PM 22.3090 116.3270 269° West 379 436 33,600 -900 Descending FlightAware
08:43PM 22.3070 116.2530 268° West 379 436 33,600  Level FlightAware
08:44PM 22.3050 116.1890 268° West 379 436 33,600  Level FlightAware
08:44PM 22.3030 116.1240 268° West 379 436 33,600  Level FlightAware
08:45PM 22.3010 116.0600 268° West 379 436 33,600  Level FlightAware
08:46PM 22.2980 115.9790 268° West 379 436 33,600  Level FlightAware
08:46PM 22.2960 115.9150 268° West 379 436 33,600  Level FlightAware
08:47PM 22.2940 115.8510 268° West 379 436 33,600  Level FlightAware
08:48PM 22.2920 115.7860 268° West 379 436 33,600  Level FlightAware
08:48PM 22.2900 115.7220 268° West 379 436 33,600  Level FlightAware
08:49PM 22.2870 115.6410 268° West 379 436 33,600  Level FlightAware
08:50PM 22.2850 115.5770 268° West 379 436 33,600  Level FlightAware
08:51PM 22.2830 115.5130 268° West 379 436 33,600  Level FlightAware
08:51PM 22.2810 115.4480 268° West 379 436 33,600  Level FlightAware
08:52PM 22.2790 115.3840 268° West 379 436 33,600 -4,200 Level FlightAware
08:55PM 22.2839 115.1824 272° West  Level Estimated
08:56PM 22.2857 115.1034 271° West  Level Estimated
08:56PM 22.2680 114.8810 271° West 319 367 14,700  Level FlightAware
08:56PM 22.2660 114.8230 268° West 319 367 14,500 -1,620 Descending FlightAware
08:57PM 22.2640 114.7550 268° West 307 353 12,600 -1,380 Descending FlightAware
08:58PM 22.2610 114.6940 267° West 307 353 12,600  Level FlightAware
08:59PM 22.2590 114.6410 268° West 307 353 12,600 -960 Level FlightAware
09:00PM 22.2570 114.5410 269° West 300 345 11,000 -1,020 Descending FlightAware
09:00PM 22.2550 114.4930 267° West 300 345 11,000  Level FlightAware
09:01PM 22.2530 114.4290 268° West 300 345 11,000  Level FlightAware
09:01PM 22.2520 114.3910 268° West 300 345 11,000  Level FlightAware
09:03PM 22.2210 114.2230 259° West 293 337 11,000 -300 Level FlightAware
09:04PM 22.1990 114.1650 248° West 270 311 10,300 -1,320 Descending FlightAware
09:04PM 22.1910 114.1420 249° West 284 327 9,600 -1,500 Descending FlightAware
09:05PM 22.1710 114.0880 248° West 273 314 8,800 -1,320 Descending FlightAware
09:05PM 22.1640 114.0710 246° West 270 311 8,500 -840 Descending FlightAware
09:06PM 22.1540 114.0450 247° West 266 306 8,200 -480 Descending FlightAware
09:06PM 22.1380 114.0020 248° West 256 295 8,000 -540 Descending FlightAware
09:07PM 22.1260 113.9700 248° West 244 281 7,700 -960 Descending FlightAware
09:08PM 22.1060 113.9180 247° West 237 273 6,800 -1,200 Descending FlightAware
09:08PM 22.0950 113.8820 252° West 237 273 6,100 -1,200 Descending FlightAware
09:10PM 22.1780 113.7600 306° West 3,600 -1,140 Descending FlightAware
09:10PM 22.1860 113.7570 341° North 216 249 3,500 -240 Descending FlightAware
09:11PM 22.2180 113.7440 339° North 211 243 3,400 -780 Descending FlightAware
09:14PM 22.3050 113.9073 60° Northeast  Level Estimated
09:14PM 22.3010 113.8660 60° Northeast 154 177 800  Level FlightAware
09:14PM 22.3040 113.8770 74° East 152 175 600 -660 Descending FlightAware
09:15PM 22.3130 113.9050 71° East 137 158 200 -600 Descending FlightAware